sensor_id;sensor_type;location;lat;lon;timestamp;pressure;altitude;pressure_sealevel;temperature;humidity
57847;BME280;43675;50.030;21.952;2023-12-04T00:00:05;99309.15;;;-3.42;77.68
57847;BME280;43675;50.030;21.952;2023-12-04T00:02:33;99308.08;;;-3.49;77.67
57847;BME280;43675;50.030;21.952;2023-12-04T00:05:05;99304.95;;;-3.58;77.69
57847;BME280;43675;50.030;21.952;2023-12-04T00:07:32;99307.38;;;-3.72;77.65
57847;BME280;43675;50.030;21.952;2023-12-04T00:10:08;99302.19;;;-3.88;77.75
57847;BME280;43675;50.030;21.952;2023-12-04T00:12:57;99306.45;;;-4.04;77.79
57847;BME280;43675;50.030;21.952;2023-12-04T00:18:09;99316.52;;;-4.38;77.75
57847;BME280;43675;50.030;21.952;2023-12-04T00:20:42;99320.31;;;-4.52;77.86
57847;BME280;43675;50.030;21.952;2023-12-04T00:23:32;99324.91;;;-4.71;78.08
57847;BME280;43675;50.030;21.952;2023-12-04T00:26:11;99328.55;;;-4.91;78.20
57847;BME280;43675;50.030;21.952;2023-12-04T00:29:03;99333.69;;;-5.08;78.51
57847;BME280;43675;50.030;21.952;2023-12-04T00:31:28;99331.27;;;-5.27;78.66
57847;BME280;43675;50.030;21.952;2023-12-04T00:34:15;99333.92;;;-5.41;78.79
57847;BME280;43675;50.030;21.952;2023-12-04T00:37:10;99332.14;;;-5.59;79.17
57847;BME280;43675;50.030;21.952;2023-12-04T00:39:48;99333.69;;;-5.72;79.44
57847;BME280;43675;50.030;21.952;2023-12-04T00:42:35;99340.40;;;-5.84;79.47
57847;BME280;43675;50.030;21.952;2023-12-04T00:45:03;99340.51;;;-6.00;79.78
57847;BME280;43675;50.030;21.952;2023-12-04T00:47:33;99342.56;;;-6.10;80.00
57847;BME280;43675;50.030;21.952;2023-12-04T00:50:21;99342.28;;;-6.23;80.14
57847;BME280;43675;50.030;21.952;2023-12-04T00:53:17;99350.78;;;-6.42;80.20
57847;BME280;43675;50.030;21.952;2023-12-04T00:56:05;99356.16;;;-6.56;80.40
57847;BME280;43675;50.030;21.952;2023-12-04T00:58:30;99358.05;;;-6.74;80.46
57847;BME280;43675;50.030;21.952;2023-12-04T01:00:57;99362.82;;;-6.83;80.67
57847;BME280;43675;50.030;21.952;2023-12-04T01:03:27;99361.44;;;-6.96;80.66
57847;BME280;43675;50.030;21.952;2023-12-04T01:05:56;99365.91;;;-7.07;81.07
57847;BME280;43675;50.030;21.952;2023-12-04T01:08:26;99365.77;;;-7.16;81.11
57847;BME280;43675;50.030;21.952;2023-12-04T01:11:31;99366.02;;;-7.24;81.42
57847;BME280;43675;50.030;21.952;2023-12-04T01:16:56;99366.07;;;-7.37;81.78
57847;BME280;43675;50.030;21.952;2023-12-04T01:22:13;99365.64;;;-7.48;82.30
57847;BME280;43675;50.030;21.952;2023-12-04T01:24:43;99364.17;;;-7.52;82.37
57847;BME280;43675;50.030;21.952;2023-12-04T01:27:13;99367.77;;;-7.61;82.62
57847;BME280;43675;50.030;21.952;2023-12-04T01:29:55;99371.13;;;-7.68;82.79
57847;BME280;43675;50.030;21.952;2023-12-04T01:35:26;99371.02;;;-7.79;82.87
57847;BME280;43675;50.030;21.952;2023-12-04T01:37:52;99373.06;;;-7.81;83.04
57847;BME280;43675;50.030;21.952;2023-12-04T01:40:24;99375.41;;;-7.86;83.13
57847;BME280;43675;50.030;21.952;2023-12-04T01:42:57;99375.15;;;-7.91;83.25
57847;BME280;43675;50.030;21.952;2023-12-04T01:45:26;99374.05;;;-7.93;83.38
57847;BME280;43675;50.030;21.952;2023-12-04T01:47:53;99376.37;;;-7.94;83.54
57847;BME280;43675;50.030;21.952;2023-12-04T01:50:21;99370.60;;;-7.93;83.93
57847;BME280;43675;50.030;21.952;2023-12-04T01:52:49;99372.48;;;-7.93;83.94
57847;BME280;43675;50.030;21.952;2023-12-04T01:58:46;99372.20;;;-7.84;84.06
57847;BME280;43675;50.030;21.952;2023-12-04T02:01:14;99368.42;;;-7.76;84.36
57847;BME280;43675;50.030;21.952;2023-12-04T02:06:45;99371.69;;;-7.63;84.16
57847;BME280;43675;50.030;21.952;2023-12-04T02:09:20;99368.17;;;-7.58;84.30
57847;BME280;43675;50.030;21.952;2023-12-04T02:12:17;99374.70;;;-7.45;84.14
57847;BME280;43675;50.030;21.952;2023-12-04T02:15:25;99373.58;;;-7.41;83.95
57847;BME280;43675;50.030;21.952;2023-12-04T02:17:51;99370.38;;;-7.33;83.75
57847;BME280;43675;50.030;21.952;2023-12-04T02:20:20;99371.14;;;-7.34;83.76
57847;BME280;43675;50.030;21.952;2023-12-04T02:23:05;99373.12;;;-7.38;83.79
57847;BME280;43675;50.030;21.952;2023-12-04T02:25:32;99374.20;;;-7.42;83.74
57847;BME280;43675;50.030;21.952;2023-12-04T02:28:04;99375.48;;;-7.43;83.99
57847;BME280;43675;50.030;21.952;2023-12-04T02:30:34;99373.11;;;-7.41;84.27
57847;BME280;43675;50.030;21.952;2023-12-04T02:33:02;99372.40;;;-7.35;84.23
57847;BME280;43675;50.030;21.952;2023-12-04T02:35:42;99372.73;;;-7.23;84.69
57847;BME280;43675;50.030;21.952;2023-12-04T02:38:19;99372.48;;;-6.94;84.46
57847;BME280;43675;50.030;21.952;2023-12-04T02:40:49;99372.99;;;-6.76;84.53
57847;BME280;43675;50.030;21.952;2023-12-04T02:43:25;99372.37;;;-6.54;84.34
57847;BME280;43675;50.030;21.952;2023-12-04T02:45:52;99371.38;;;-6.43;84.27
57847;BME280;43675;50.030;21.952;2023-12-04T02:48:19;99374.23;;;-6.33;84.20
57847;BME280;43675;50.030;21.952;2023-12-04T02:50:46;99379.89;;;-6.23;84.40
57847;BME280;43675;50.030;21.952;2023-12-04T02:56:03;99375.24;;;-5.95;84.24
57847;BME280;43675;50.030;21.952;2023-12-04T02:58:44;99372.55;;;-5.67;84.02
57847;BME280;43675;50.030;21.952;2023-12-04T03:01:21;99366.70;;;-5.54;83.60
57847;BME280;43675;50.030;21.952;2023-12-04T03:06:44;99365.80;;;-5.38;83.28
57847;BME280;43675;50.030;21.952;2023-12-04T03:09:31;99368.05;;;-5.29;83.02
57847;BME280;43675;50.030;21.952;2023-12-04T03:12:19;99370.29;;;-5.24;82.83
57847;BME280;43675;50.030;21.952;2023-12-04T03:14:45;99373.73;;;-5.17;82.54
57847;BME280;43675;50.030;21.952;2023-12-04T03:17:14;99373.58;;;-5.12;82.50
57847;BME280;43675;50.030;21.952;2023-12-04T03:19:50;99376.53;;;-5.09;82.28
57847;BME280;43675;50.030;21.952;2023-12-04T03:22:47;99377.20;;;-5.06;82.13
57847;BME280;43675;50.030;21.952;2023-12-04T03:25:31;99382.89;;;-5.00;81.95
57847;BME280;43675;50.030;21.952;2023-12-04T03:27:57;99382.62;;;-4.94;81.81
57847;BME280;43675;50.030;21.952;2023-12-04T03:30:33;99381.59;;;-4.94;81.54
57847;BME280;43675;50.030;21.952;2023-12-04T03:33:01;99375.89;;;-4.97;81.28
57847;BME280;43675;50.030;21.952;2023-12-04T03:35:48;99379.35;;;-5.02;81.04
57847;BME280;43675;50.030;21.952;2023-12-04T03:38:15;99377.11;;;-5.16;80.67
57847;BME280;43675;50.030;21.952;2023-12-04T03:40:41;99377.11;;;-5.30;80.43
57847;BME280;43675;50.030;21.952;2023-12-04T03:43:08;99381.55;;;-5.47;80.32
57847;BME280;43675;50.030;21.952;2023-12-04T03:45:44;99387.52;;;-5.63;80.16
57847;BME280;43675;50.030;21.952;2023-12-04T03:48:11;99388.90;;;-5.80;80.10
57847;BME280;43675;50.030;21.952;2023-12-04T03:50:44;99385.33;;;-5.95;80.30
57847;BME280;43675;50.030;21.952;2023-12-04T03:53:14;99381.26;;;-6.02;80.06
57847;BME280;43675;50.030;21.952;2023-12-04T03:55:50;99381.10;;;-6.17;80.38
57847;BME280;43675;50.030;21.952;2023-12-04T04:03:55;99391.91;;;-6.51;80.88
57847;BME280;43675;50.030;21.952;2023-12-04T04:06:27;99390.77;;;-6.56;80.82
57847;BME280;43675;50.030;21.952;2023-12-04T04:09:18;99395.64;;;-6.67;81.08
57847;BME280;43675;50.030;21.952;2023-12-04T04:14:43;99395.69;;;-6.78;81.52
57847;BME280;43675;50.030;21.952;2023-12-04T04:17:30;99403.27;;;-6.79;81.56
57847;BME280;43675;50.030;21.952;2023-12-04T04:20:00;99404.61;;;-6.84;81.62
57847;BME280;43675;50.030;21.952;2023-12-04T04:22:27;99408.19;;;-6.83;81.89
57847;BME280;43675;50.030;21.952;2023-12-04T04:25:15;99410.19;;;-6.81;82.30
57847;BME280;43675;50.030;21.952;2023-12-04T04:30:29;99412.09;;;-6.63;82.62
57847;BME280;43675;50.030;21.952;2023-12-04T04:32:55;99413.05;;;-6.53;82.78
57847;BME280;43675;50.030;21.952;2023-12-04T04:35:25;99411.29;;;-6.44;82.86
57847;BME280;43675;50.030;21.952;2023-12-04T04:37:52;99420.14;;;-6.32;83.02
57847;BME280;43675;50.030;21.952;2023-12-04T04:40:33;99420.66;;;-6.20;83.05
57847;BME280;43675;50.030;21.952;2023-12-04T04:43:05;99423.02;;;-6.04;83.01
57847;BME280;43675;50.030;21.952;2023-12-04T04:45:41;99420.43;;;-5.91;82.90
57847;BME280;43675;50.030;21.952;2023-12-04T04:51:00;99419.02;;;-5.63;82.68
57847;BME280;43675;50.030;21.952;2023-12-04T04:53:30;99422.46;;;-5.56;82.48
57847;BME280;43675;50.030;21.952;2023-12-04T04:56:19;99423.00;;;-5.59;82.14
57847;BME280;43675;50.030;21.952;2023-12-04T05:09:44;99434.44;;;-6.09;81.35
57847;BME280;43675;50.030;21.952;2023-12-04T05:12:20;99432.95;;;-6.19;81.53
57847;BME280;43675;50.030;21.952;2023-12-04T05:14:57;99430.77;;;-6.26;81.65
57847;BME280;43675;50.030;21.952;2023-12-04T05:17:40;99435.31;;;-6.29;81.75
57847;BME280;43675;50.030;21.952;2023-12-04T05:20:28;99438.54;;;-6.31;81.85
57847;BME280;43675;50.030;21.952;2023-12-04T05:23:23;99440.88;;;-6.29;81.80
57847;BME280;43675;50.030;21.952;2023-12-04T05:28:56;99441.66;;;-6.16;81.59
57847;BME280;43675;50.030;21.952;2023-12-04T05:31:44;99443.28;;;-6.08;81.55
57847;BME280;43675;50.030;21.952;2023-12-04T05:34:10;99442.96;;;-6.03;81.69
57847;BME280;43675;50.030;21.952;2023-12-04T05:36:36;99436.80;;;-5.96;81.56
57847;BME280;43675;50.030;21.952;2023-12-04T05:39:03;99434.98;;;-5.92;81.54
57847;BME280;43675;50.030;21.952;2023-12-04T05:41:30;99436.45;;;-5.88;81.51
57847;BME280;43675;50.030;21.952;2023-12-04T05:43:57;99431.77;;;-5.83;81.56
57847;BME280;43675;50.030;21.952;2023-12-04T05:46:24;99428.44;;;-5.77;81.45
57847;BME280;43675;50.030;21.952;2023-12-04T05:48:51;99431.69;;;-5.73;81.29
57847;BME280;43675;50.030;21.952;2023-12-04T05:51:17;99427.51;;;-5.70;81.08
57847;BME280;43675;50.030;21.952;2023-12-04T05:54:02;99426.02;;;-5.69;81.11
57847;BME280;43675;50.030;21.952;2023-12-04T05:56:32;99418.16;;;-5.66;81.17
57847;BME280;43675;50.030;21.952;2023-12-04T05:59:11;99416.39;;;-5.65;81.13
57847;BME280;43675;50.030;21.952;2023-12-04T06:04:43;99413.69;;;-5.61;80.82
57847;BME280;43675;50.030;21.952;2023-12-04T06:07:11;99422.17;;;-5.57;80.86
57847;BME280;43675;50.030;21.952;2023-12-04T06:09:37;99429.15;;;-5.58;80.78
57847;BME280;43675;50.030;21.952;2023-12-04T06:12:25;99428.63;;;-5.55;80.78
57847;BME280;43675;50.030;21.952;2023-12-04T06:15:12;99431.73;;;-5.49;80.82
57847;BME280;43675;50.030;21.952;2023-12-04T06:17:59;99435.41;;;-5.41;80.85
57847;BME280;43675;50.030;21.952;2023-12-04T06:20:43;99431.84;;;-5.34;80.65
57847;BME280;43675;50.030;21.952;2023-12-04T06:23:11;99438.74;;;-5.28;80.70
57847;BME280;43675;50.030;21.952;2023-12-04T06:25:47;99438.80;;;-5.23;80.37
57847;BME280;43675;50.030;21.952;2023-12-04T06:30:54;99435.55;;;-5.15;80.26
57847;BME280;43675;50.030;21.952;2023-12-04T06:33:24;99435.85;;;-5.09;80.09
57847;BME280;43675;50.030;21.952;2023-12-04T06:36:12;99433.04;;;-5.04;80.00
57847;BME280;43675;50.030;21.952;2023-12-04T06:38:54;99437.48;;;-4.94;79.94
57847;BME280;43675;50.030;21.952;2023-12-04T06:41:32;99437.49;;;-4.70;79.66
57847;BME280;43675;50.030;21.952;2023-12-04T06:43:59;99440.48;;;-4.50;79.00
57847;BME280;43675;50.030;21.952;2023-12-04T06:46:37;99441.19;;;-4.35;78.70
57847;BME280;43675;50.030;21.952;2023-12-04T06:49:05;99443.38;;;-4.33;78.36
57847;BME280;43675;50.030;21.952;2023-12-04T06:51:53;99445.94;;;-4.35;78.28
57847;BME280;43675;50.030;21.952;2023-12-04T06:54:40;99456.23;;;-4.37;78.22
57847;BME280;43675;50.030;21.952;2023-12-04T06:57:15;99452.89;;;-4.34;78.09
57847;BME280;43675;50.030;21.952;2023-12-04T07:08:36;99451.53;;;-4.01;77.55
57847;BME280;43675;50.030;21.952;2023-12-04T07:11:03;99451.20;;;-3.99;77.18
57847;BME280;43675;50.030;21.952;2023-12-04T07:13:33;99451.43;;;-3.98;77.13
57847;BME280;43675;50.030;21.952;2023-12-04T07:18:46;99455.27;;;-3.90;76.88
57847;BME280;43675;50.030;21.952;2023-12-04T07:21:15;99459.77;;;-3.79;76.37
57847;BME280;43675;50.030;21.952;2023-12-04T07:24:23;99462.00;;;-3.78;75.97
57847;BME280;43675;50.030;21.952;2023-12-04T07:26:59;99468.25;;;-3.73;75.94
57847;BME280;43675;50.030;21.952;2023-12-04T07:29:46;99472.73;;;-3.62;75.62
57847;BME280;43675;50.030;21.952;2023-12-04T07:32:13;99472.81;;;-3.41;75.29
57847;BME280;43675;50.030;21.952;2023-12-04T07:34:39;99472.23;;;-3.23;74.89
57847;BME280;43675;50.030;21.952;2023-12-04T07:37:06;99471.71;;;-3.08;74.19
57847;BME280;43675;50.030;21.952;2023-12-04T07:39:33;99462.31;;;-2.97;73.71
57847;BME280;43675;50.030;21.952;2023-12-04T07:42:20;99463.64;;;-2.89;73.51
57847;BME280;43675;50.030;21.952;2023-12-04T07:47:37;99465.06;;;-2.96;72.98
57847;BME280;43675;50.030;21.952;2023-12-04T07:50:04;99472.55;;;-3.03;72.89
57847;BME280;43675;50.030;21.952;2023-12-04T07:52:41;99470.27;;;-3.07;72.85
57847;BME280;43675;50.030;21.952;2023-12-04T07:55:08;99474.53;;;-3.08;72.86
57847;BME280;43675;50.030;21.952;2023-12-04T07:57:35;99478.86;;;-3.08;72.62
57847;BME280;43675;50.030;21.952;2023-12-04T08:00:05;99480.91;;;-3.07;72.73
57847;BME280;43675;50.030;21.952;2023-12-04T08:02:38;99484.14;;;-3.06;72.61
57847;BME280;43675;50.030;21.952;2023-12-04T08:05:05;99485.63;;;-3.02;72.73
57847;BME280;43675;50.030;21.952;2023-12-04T08:07:36;99485.86;;;-2.96;72.65
57847;BME280;43675;50.030;21.952;2023-12-04T08:10:03;99484.89;;;-2.87;72.40
57847;BME280;43675;50.030;21.952;2023-12-04T08:12:30;99488.27;;;-2.78;72.49
57847;BME280;43675;50.030;21.952;2023-12-04T08:14:57;99487.25;;;-2.64;72.15
57847;BME280;43675;50.030;21.952;2023-12-04T08:17:34;99489.11;;;-2.54;71.84
57847;BME280;43675;50.030;21.952;2023-12-04T08:20:04;99485.20;;;-2.46;71.94
57847;BME280;43675;50.030;21.952;2023-12-04T08:22:31;99480.73;;;-2.35;72.21
57847;BME280;43675;50.030;21.952;2023-12-04T08:24:58;99480.19;;;-2.21;71.31
57847;BME280;43675;50.030;21.952;2023-12-04T08:30:47;99481.00;;;-2.00;71.43
57847;BME280;43675;50.030;21.952;2023-12-04T08:33:15;99481.27;;;-1.78;70.72
57847;BME280;43675;50.030;21.952;2023-12-04T08:35:54;99473.89;;;-1.71;70.47
57847;BME280;43675;50.030;21.952;2023-12-04T08:38:24;99474.17;;;-1.68;70.33
57847;BME280;43675;50.030;21.952;2023-12-04T08:40:51;99473.02;;;-1.67;70.02
57847;BME280;43675;50.030;21.952;2023-12-04T08:43:18;99479.00;;;-1.69;69.70
57847;BME280;43675;50.030;21.952;2023-12-04T08:45:45;99479.70;;;-1.71;69.56
57847;BME280;43675;50.030;21.952;2023-12-04T08:48:12;99488.64;;;-1.71;69.09
57847;BME280;43675;50.030;21.952;2023-12-04T08:50:42;99492.53;;;-1.69;69.08
57847;BME280;43675;50.030;21.952;2023-12-04T08:53:28;99491.27;;;-1.69;69.05
57847;BME280;43675;50.030;21.952;2023-12-04T08:56:31;99496.88;;;-1.62;69.09
57847;BME280;43675;50.030;21.952;2023-12-04T09:01:45;99489.63;;;-1.39;68.92
57847;BME280;43675;50.030;21.952;2023-12-04T09:04:12;99487.52;;;-1.34;68.39
57847;BME280;43675;50.030;21.952;2023-12-04T09:06:59;99490.24;;;-1.33;68.23
57847;BME280;43675;50.030;21.952;2023-12-04T09:09:32;99483.81;;;-1.32;68.27
57847;BME280;43675;50.030;21.952;2023-12-04T09:12:24;99487.02;;;-1.30;67.93
57847;BME280;43675;50.030;21.952;2023-12-04T09:14:56;99488.27;;;-1.33;68.13
57847;BME280;43675;50.030;21.952;2023-12-04T09:17:23;99485.73;;;-1.34;67.86
57847;BME280;43675;50.030;21.952;2023-12-04T09:23:02;99479.04;;;-1.38;67.97
57847;BME280;43675;50.030;21.952;2023-12-04T09:25:37;99477.17;;;-1.37;67.94
57847;BME280;43675;50.030;21.952;2023-12-04T09:28:08;99476.67;;;-1.37;67.92
57847;BME280;43675;50.030;21.952;2023-12-04T09:30:36;99470.88;;;-1.39;67.82
57847;BME280;43675;50.030;21.952;2023-12-04T09:36:08;99468.98;;;-1.40;67.86
57847;BME280;43675;50.030;21.952;2023-12-04T09:38:44;99467.84;;;-1.27;67.42
57847;BME280;43675;50.030;21.952;2023-12-04T09:41:14;99462.98;;;-1.31;67.49
57847;BME280;43675;50.030;21.952;2023-12-04T09:43:49;99458.36;;;-1.32;67.47
57847;BME280;43675;50.030;21.952;2023-12-04T09:46:26;99459.83;;;-1.40;67.58
57847;BME280;43675;50.030;21.952;2023-12-04T09:49:16;99465.16;;;-1.45;67.59
57847;BME280;43675;50.030;21.952;2023-12-04T09:52:04;99468.22;;;-1.50;68.16
57847;BME280;43675;50.030;21.952;2023-12-04T09:54:40;99470.60;;;-1.49;68.21
57847;BME280;43675;50.030;21.952;2023-12-04T09:57:08;99472.81;;;-1.53;67.96
57847;BME280;43675;50.030;21.952;2023-12-04T09:59:38;99469.34;;;-1.56;68.28
57847;BME280;43675;50.030;21.952;2023-12-04T10:02:09;99465.17;;;-1.58;68.14
57847;BME280;43675;50.030;21.952;2023-12-04T10:04:38;99460.69;;;-1.61;68.19
57847;BME280;43675;50.030;21.952;2023-12-04T10:07:09;99464.02;;;-1.64;68.27
57847;BME280;43675;50.030;21.952;2023-12-04T10:09:56;99468.13;;;-1.65;68.28
57847;BME280;43675;50.030;21.952;2023-12-04T10:12:28;99468.38;;;-1.66;68.43
57847;BME280;43675;50.030;21.952;2023-12-04T10:21:33;99444.48;;;-1.50;68.16
57847;BME280;43675;50.030;21.952;2023-12-04T10:27:17;99449.29;;;-1.46;68.38
57847;BME280;43675;50.030;21.952;2023-12-04T10:29:51;99448.40;;;-1.46;68.61
57847;BME280;43675;50.030;21.952;2023-12-04T10:32:24;99445.40;;;-1.46;68.31
57847;BME280;43675;50.030;21.952;2023-12-04T10:35:18;99447.22;;;-1.47;68.61
57847;BME280;43675;50.030;21.952;2023-12-04T10:37:46;99448.17;;;-1.48;68.61
57847;BME280;43675;50.030;21.952;2023-12-04T10:40:42;99445.48;;;-1.49;68.57
57847;BME280;43675;50.030;21.952;2023-12-04T10:43:29;99437.42;;;-1.52;68.81
57847;BME280;43675;50.030;21.952;2023-12-04T10:46:07;99435.29;;;-1.51;68.57
57847;BME280;43675;50.030;21.952;2023-12-04T10:48:34;99434.21;;;-1.51;68.46
57847;BME280;43675;50.030;21.952;2023-12-04T10:51:01;99428.56;;;-1.50;68.52
57847;BME280;43675;50.030;21.952;2023-12-04T10:53:27;99426.65;;;-1.51;68.71
57847;BME280;43675;50.030;21.952;2023-12-04T10:55:56;99423.45;;;-1.50;68.60
57847;BME280;43675;50.030;21.952;2023-12-04T10:58:26;99424.45;;;-1.50;68.46
57847;BME280;43675;50.030;21.952;2023-12-04T11:00:54;99421.98;;;-1.47;69.12
57847;BME280;43675;50.030;21.952;2023-12-04T11:03:36;99416.55;;;-1.47;68.88
57847;BME280;43675;50.030;21.952;2023-12-04T11:11:43;99417.50;;;-1.39;68.73
57847;BME280;43675;50.030;21.952;2023-12-04T11:14:14;99414.17;;;-1.37;68.82
57847;BME280;43675;50.030;21.952;2023-12-04T11:17:10;99412.16;;;-1.34;68.63
57847;BME280;43675;50.030;21.952;2023-12-04T11:20:04;99409.52;;;-1.16;68.19
57847;BME280;43675;50.030;21.952;2023-12-04T11:22:38;99408.04;;;-1.01;68.39
57847;BME280;43675;50.030;21.952;2023-12-04T11:25:12;99408.41;;;-1.01;68.10
57847;BME280;43675;50.030;21.952;2023-12-04T11:27:42;99402.52;;;-1.08;67.92
57847;BME280;43675;50.030;21.952;2023-12-04T11:30:30;99397.88;;;-1.14;68.00
57847;BME280;43675;50.030;21.952;2023-12-04T11:33:06;99399.81;;;-1.16;68.39
57847;BME280;43675;50.030;21.952;2023-12-04T11:35:33;99397.36;;;-1.16;68.10
57847;BME280;43675;50.030;21.952;2023-12-04T11:38:06;99399.05;;;-1.17;68.46
57847;BME280;43675;50.030;21.952;2023-12-04T11:40:34;99396.30;;;-1.18;68.90
57847;BME280;43675;50.030;21.952;2023-12-04T11:43:20;99393.52;;;-1.16;68.83
57847;BME280;43675;50.030;21.952;2023-12-04T11:45:50;99392.85;;;-1.06;68.39
57847;BME280;43675;50.030;21.952;2023-12-04T11:48:29;99386.27;;;-1.07;68.37
57847;BME280;43675;50.030;21.952;2023-12-04T11:54:02;99384.10;;;-1.19;68.68
57847;BME280;43675;50.030;21.952;2023-12-04T11:57:05;99382.49;;;-1.23;68.87
57847;BME280;43675;50.030;21.952;2023-12-04T11:59:44;99379.61;;;-1.26;68.99
57847;BME280;43675;50.030;21.952;2023-12-04T12:02:13;99374.73;;;-1.27;68.99
57847;BME280;43675;50.030;21.952;2023-12-04T12:04:40;99369.92;;;-1.30;69.12
57847;BME280;43675;50.030;21.952;2023-12-04T12:07:07;99369.48;;;-1.29;69.34
57847;BME280;43675;50.030;21.952;2023-12-04T12:09:34;99372.06;;;-1.24;69.34
57847;BME280;43675;50.030;21.952;2023-12-04T12:12:25;99372.70;;;-1.28;69.38
57847;BME280;43675;50.030;21.952;2023-12-04T12:15:14;99367.05;;;-1.32;69.69
57847;BME280;43675;50.030;21.952;2023-12-04T12:18:00;99363.44;;;-1.33;69.66
57847;BME280;43675;50.030;21.952;2023-12-04T12:20:29;99364.58;;;-1.33;69.90
57847;BME280;43675;50.030;21.952;2023-12-04T12:25:43;99358.23;;;-1.40;69.86
57847;BME280;43675;50.030;21.952;2023-12-04T12:28:30;99355.33;;;-1.43;69.98
57847;BME280;43675;50.030;21.952;2023-12-04T12:31:06;99355.77;;;-1.46;70.00
57847;BME280;43675;50.030;21.952;2023-12-04T12:33:36;99355.66;;;-1.47;70.23
57847;BME280;43675;50.030;21.952;2023-12-04T12:36:03;99358.42;;;-1.51;70.65
57847;BME280;43675;50.030;21.952;2023-12-04T12:38:30;99354.73;;;-1.53;70.38
57847;BME280;43675;50.030;21.952;2023-12-04T12:40:57;99353.81;;;-1.42;70.31
57847;BME280;43675;50.030;21.952;2023-12-04T12:43:27;99352.66;;;-1.40;70.28
57847;BME280;43675;50.030;21.952;2023-12-04T12:46:20;99347.61;;;-1.52;70.42
57847;BME280;43675;50.030;21.952;2023-12-04T12:49:08;99342.98;;;-1.60;70.92
57847;BME280;43675;50.030;21.952;2023-12-04T12:51:38;99346.60;;;-1.63;71.31
57847;BME280;43675;50.030;21.952;2023-12-04T12:54:07;99347.92;;;-1.69;71.36
57847;BME280;43675;50.030;21.952;2023-12-04T12:56:46;99348.84;;;-1.76;71.83
57847;BME280;43675;50.030;21.952;2023-12-04T12:59:24;99346.98;;;-1.81;71.97
57847;BME280;43675;50.030;21.952;2023-12-04T13:02:14;99346.11;;;-1.86;72.62
57847;BME280;43675;50.030;21.952;2023-12-04T13:05:03;99343.77;;;-1.89;72.71
57847;BME280;43675;50.030;21.952;2023-12-04T13:10:38;99343.41;;;-1.83;72.57
57847;BME280;43675;50.030;21.952;2023-12-04T13:13:47;99346.14;;;-1.88;72.79
57847;BME280;43675;50.030;21.952;2023-12-04T13:16:33;99344.83;;;-1.96;73.21
57847;BME280;43675;50.030;21.952;2023-12-04T13:19:42;99340.73;;;-1.98;72.93
57847;BME280;43675;50.030;21.952;2023-12-04T13:22:37;99342.70;;;-2.07;73.47
57847;BME280;43675;50.030;21.952;2023-12-04T13:25:29;99338.85;;;-2.18;73.64
57847;BME280;43675;50.030;21.952;2023-12-04T13:28:03;99338.75;;;-2.28;74.06
57847;BME280;43675;50.030;21.952;2023-12-04T13:30:42;99337.80;;;-2.36;74.37
57847;BME280;43675;50.030;21.952;2023-12-04T13:33:12;99336.96;;;-2.46;74.42
57847;BME280;43675;50.030;21.952;2023-12-04T13:35:45;99331.67;;;-2.53;74.81
57847;BME280;43675;50.030;21.952;2023-12-04T13:38:14;99328.30;;;-2.59;74.92
57847;BME280;43675;50.030;21.952;2023-12-04T13:40:52;99327.52;;;-2.65;75.36
57847;BME280;43675;50.030;21.952;2023-12-04T13:43:21;99325.48;;;-2.70;75.48
57847;BME280;43675;50.030;21.952;2023-12-04T13:45:51;99329.83;;;-2.67;75.63
57847;BME280;43675;50.030;21.952;2023-12-04T13:50:54;99336.83;;;-2.90;75.42
57847;BME280;43675;50.030;21.952;2023-12-04T13:53:20;99338.46;;;-3.01;75.82
57847;BME280;43675;50.030;21.952;2023-12-04T13:55:50;99340.30;;;-3.11;75.99
57847;BME280;43675;50.030;21.952;2023-12-04T13:58:17;99339.96;;;-3.21;76.26
57847;BME280;43675;50.030;21.952;2023-12-04T14:00:43;99336.14;;;-3.30;76.15
57847;BME280;43675;50.030;21.952;2023-12-04T14:03:10;99333.79;;;-3.39;76.31
57847;BME280;43675;50.030;21.952;2023-12-04T14:05:50;99333.19;;;-3.48;76.52
57847;BME280;43675;50.030;21.952;2023-12-04T14:08:23;99335.69;;;-3.56;76.67
57847;BME280;43675;50.030;21.952;2023-12-04T14:11:10;99333.21;;;-3.62;76.95
57847;BME280;43675;50.030;21.952;2023-12-04T14:14:18;99338.21;;;-3.74;77.01
57847;BME280;43675;50.030;21.952;2023-12-04T14:16:49;99341.23;;;-3.84;77.14
57847;BME280;43675;50.030;21.952;2023-12-04T14:19:18;99340.61;;;-3.93;77.37
57847;BME280;43675;50.030;21.952;2023-12-04T14:21:45;99344.92;;;-4.04;77.39
57847;BME280;43675;50.030;21.952;2023-12-04T14:24:32;99343.39;;;-4.15;77.84
57847;BME280;43675;50.030;21.952;2023-12-04T14:29:50;99343.22;;;-4.38;78.10
57847;BME280;43675;50.030;21.952;2023-12-04T14:32:16;99340.02;;;-4.49;78.48
57847;BME280;43675;50.030;21.952;2023-12-04T14:34:57;99338.47;;;-4.60;78.81
57847;BME280;43675;50.030;21.952;2023-12-04T14:40:52;99342.30;;;-4.80;79.34
57847;BME280;43675;50.030;21.952;2023-12-04T14:43:22;99339.37;;;-4.89;79.60
57847;BME280;43675;50.030;21.952;2023-12-04T14:45:49;99338.95;;;-4.98;79.87
57847;BME280;43675;50.030;21.952;2023-12-04T14:48:19;99336.88;;;-5.09;80.13
57847;BME280;43675;50.030;21.952;2023-12-04T14:50:52;99330.79;;;-5.19;80.48
57847;BME280;43675;50.030;21.952;2023-12-04T14:56:28;99324.27;;;-5.37;81.08
57847;BME280;43675;50.030;21.952;2023-12-04T14:59:07;99324.02;;;-5.42;81.34
57847;BME280;43675;50.030;21.952;2023-12-04T15:04:41;99324.75;;;-5.52;81.79
57847;BME280;43675;50.030;21.952;2023-12-04T15:07:31;99324.85;;;-5.43;81.80
57847;BME280;43675;50.030;21.952;2023-12-04T15:12:45;99324.14;;;-5.57;82.03
57847;BME280;43675;50.030;21.952;2023-12-04T15:15:23;99321.52;;;-5.62;82.40
57847;BME280;43675;50.030;21.952;2023-12-04T15:18:31;99321.55;;;-5.68;82.55
57847;BME280;43675;50.030;21.952;2023-12-04T15:27:31;99313.95;;;-5.64;83.13
57847;BME280;43675;50.030;21.952;2023-12-04T15:30:04;99314.26;;;-5.49;83.46
57847;BME280;43675;50.030;21.952;2023-12-04T15:32:31;99316.10;;;-5.24;83.57
57847;BME280;43675;50.030;21.952;2023-12-04T15:35:27;99317.40;;;-5.02;83.46
57847;BME280;43675;50.030;21.952;2023-12-04T15:37:59;99311.37;;;-4.80;83.42
57847;BME280;43675;50.030;21.952;2023-12-04T15:40:35;99304.67;;;-4.61;83.37
57847;BME280;43675;50.030;21.952;2023-12-04T15:43:13;99298.46;;;-4.42;83.38